Relevés horaires Bruxelles-National (Belgique)


Relevés horaires à Bruxelles-National - Jeudi 02 Juill. 2020
Heure UTC1 Température [°C] Vent [km/h] Hum. [%] Pres.4 [hPa] Visi. [Km] Nébu. [octa] Préc.5 [mm] Cond.
2m. Res. Ros. Dir.2 Vit. Moy. Raf.3
23:00 14.3 14.2 9.9 OSO 7.4 9.3 13.0 75 1016.2(1.1/3h) 30 0/8 -- --
22:00 14.9 14.9 9.6 OSO 7.4 7.4 13.0 71 1016(1.5/3h) 30 1/8 -- --
21:00 15.5 15.5 10.1 OSO 5.6 14.8 22.2 70 1015.6(1.7/3h) 30 1/8 -- --
20:00 16.9 16.8 8.9 O 11.1 14.8 22.2 59 1015(1.6/3h) 30 2/8 -- --
19:00 18.0 17.8 8.5 O 14.8 14.8 22.2 54 1014.5(1.4/3h) 30 4/8 -- --
18:00 19.2 19.2 8.1 O 14.8 16.7 22.2 49 1013.7(0.6/3h) 30 4/8 0/12h
Etat du ciel inchangé
17:00 19.6 19.6 8.4 O 14.8 16.7 22.2 48 1013.3(0.5/3h) 30 4/8 -- --
16:00 20.3 20.3 9.4 O 14.8 14.8 20.4 50 1013(0.5/3h) 30 5/8 -- --
15:00 19.5 19.5 9.6 O 13.0 14.8 20.4 53 1013.1(0.7/3h) 30 5/8 -- --
14:00 19.8 19.8 9.7 O 11.1 13.0 18.5 52 1012.7(0.8/3h) 30 5/8 -- --
13:00 19.8 19.8 10.9 OSO 13.0 13.0 18.5 56 1012.5(0.8/3h) 30 5/8 -- --
12:00 18.3 18.3 12.7 O 11.1 14.8 18.5 70 1012.4(0.9/3h) 30 5/8 0/6h
Il y a eu une averse de pluie à la station au cours de l'heure précédente, mais il n'y en a pas au moment de l'observation
11:00 20.3 20.3 12.1 OSO 9.3 11.1 16.7 59 1011.9(0.7/3h) 30 5/8 -- --
10:00 19.1 19.1 11.9 O 9.3 11.1 16.7 63 1011.7(1.0/3h) 30 5/8 -- --
09:00 19.3 19.3 12.9 O 7.4 13.0 16.7 66 1011.5(0.8/3h) 30 5/8 -- Etat du ciel inchangé
08:00 17.5 17.5 12.7 OSO 11.1 11.1 14.8 73 1011.2(0.5/3h) 30 5/8 -- --
07:00 16.6 16.6 13.5 OSO 9.3 9.3 11.1 82 1010.8(0.4/3h) 30 5/8 -- --
06:00 15.7 15.7 13.7 SO 5.6 9.3 13.0 88 1010.7(0.5/3h) 30 6/8 0/12h
Il y a eu une averse de pluie à la station au cours de l'heure précédente, mais il n'y en a pas au moment de l'observation
05:00 15.6 15.6 13.0 SO 7.4 9.3 13.0 85 1010.7(0.5/3h) 30 7/8 -- --
04:00 15.3 15.3 12.4 SO 7.4 7.4 13.0 83 1010.4(0.2/3h) 30 7/8 -- --
03:00 14.8 14.7 12.3 SO 7.4 9.3 13.0 85 1010.3(0.1/3h) 30 6/8 -- --
02:00 14.5 14.4 12.1 SSO 7.4 7.4 11.1 86 1010.2(0.1/3h) 30 6/8 -- --
01:00 13.8 13.8 12.1 SSO 5.6 9.3 13.0 89 1010.2(0.1/3h) 30 6/8 -- --
00:00 15.0 15 11.2 OSO 7.4 14.8 20.4 78 1010.2(0.5/3h) 30 4/8 0/6h
22.6/24h
--

1 Coordinated Universal Time. Actuellement il est 07:00 locale et 05:00 UTC.

2 Le vent souffle depuis la direction indiquée vers la direction oposée.

3 Les rafales max. sont disponible 40 min après l'heure du relevé.

4 Pour les stations d'altitude (plus de 600m) le géopotentiel du niveau le plus proche de la pression obligatoire est indiqué.

5 Les stations disposant d'un diffuseur peuvent indiquer "trace". Cela signifie que des précipitations ont touchés le sol mais que la quantité est inférieure à 0.1 mm.

Récapitulatif de la journée
Température [°C] Vent [km/h] Ensoleillement4 [h] Precipitations totale5 [mm] Pression [Hpa]
Min1 Max.2 Moy.3 Max. Min Max.
13.7 21.2 12 22.2 0 h 0 min 0 1010.2 1016.2

1 Température minimale relevée entre 18:00 UTC la veille et 18:00 UTC le jour donné.

2 Température maximale relevée entre 06:00 UTC le jour donné et 06:00 UTC le lendemain.

3 Vent moyen de la journée basé sur les relevés horaires.

4 Ensoleillement en heures relevé entre 06:00 UTC la veille et 06:00 UTC le jour donné.

5 Précipitations totales tombées entre 06:00 UTC la jour donné et 06:00 UTC le lendemain.

Graphiques horaires